createdAt,value
2019-01-17T00:00:03.188Z,86
2019-01-17T00:01:03.365Z,86
2019-01-17T00:02:02.987Z,86
2019-01-17T00:03:03.038Z,86
2019-01-17T00:04:03.625Z,86
2019-01-17T00:05:02.806Z,86
2019-01-17T00:06:02.710Z,86
2019-01-17T00:07:03.161Z,86
2019-01-17T00:08:03.745Z,86
2019-01-17T00:09:02.914Z,86
2019-01-17T00:10:03.542Z,86
2019-01-17T00:11:03.192Z,86
2019-01-17T00:12:03.293Z,86
2019-01-17T00:13:03.254Z,86
2019-01-17T00:14:02.876Z,86
2019-01-17T00:15:02.914Z,86
2019-01-17T00:16:02.742Z,86
2019-01-17T00:17:03.099Z,86
2019-01-17T00:18:03.303Z,86
2019-01-17T00:19:02.712Z,86
2019-01-17T00:20:03.526Z,86
2019-01-17T00:21:02.842Z,86
2019-01-17T00:22:03.550Z,86
2019-01-17T00:23:03.339Z,86
2019-01-17T00:24:03.066Z,86
2019-01-17T00:25:03.691Z,86
2019-01-17T00:26:03.748Z,86
2019-01-17T00:27:02.862Z,86
2019-01-17T00:28:02.792Z,86
2019-01-17T00:29:03.063Z,86
2019-01-17T00:30:02.946Z,86
2019-01-17T00:31:03.208Z,86
2019-01-17T00:32:03.267Z,87
2019-01-17T00:33:02.902Z,87
2019-01-17T00:34:02.653Z,87
2019-01-17T00:35:02.917Z,87
2019-01-17T00:36:02.884Z,87
2019-01-17T00:37:03.466Z,87
2019-01-17T00:38:03.596Z,87
2019-01-17T00:39:03.558Z,87
2019-01-17T00:40:03.107Z,87
2019-01-17T00:41:03.118Z,87
2019-01-17T00:42:03.794Z,87
2019-01-17T00:43:03.381Z,87
2019-01-17T00:44:03.631Z,87
2019-01-17T00:45:03.227Z,87
2019-01-17T00:46:03.537Z,87
2019-01-17T00:47:02.965Z,87
2019-01-17T00:48:03.168Z,87
2019-01-17T00:49:02.803Z,87
2019-01-17T00:50:03.686Z,87
2019-01-17T00:51:03.029Z,87
2019-01-17T00:52:03.010Z,87
2019-01-17T00:53:03.521Z,87
2019-01-17T00:54:09.362Z,87
2019-01-17T00:55:03.266Z,87
2019-01-17T00:56:03.781Z,87
2019-01-17T00:57:03.417Z,87
2019-01-17T00:58:03.699Z,87
2019-01-17T00:59:03.035Z,87
2019-01-17T01:00:02.723Z,87
2019-01-17T01:01:03.588Z,87
2019-01-17T01:02:04.128Z,87
2019-01-17T01:03:03.555Z,87
2019-01-17T01:04:03.862Z,87
2019-01-17T01:05:03.515Z,87
2019-01-17T01:06:02.759Z,87
2019-01-17T01:07:02.935Z,87
2019-01-17T01:08:03.261Z,87
2019-01-17T01:09:03.416Z,87
2019-01-17T01:10:03.497Z,87
2019-01-17T01:11:03.064Z,87
2019-01-17T01:12:03.101Z,87
2019-01-17T01:13:03.138Z,87
2019-01-17T01:14:03.167Z,87
2019-01-17T01:15:02.996Z,87
2019-01-17T01:16:03.628Z,87
2019-01-17T01:17:03.344Z,87
2019-01-17T01:18:03.230Z,87
2019-01-17T01:19:03.529Z,87
2019-01-17T01:20:03.056Z,87
2019-01-17T01:21:03.259Z,87
2019-01-17T01:22:03.731Z,87
2019-01-17T01:23:02.772Z,87
2019-01-17T01:24:03.064Z,87
2019-01-17T01:25:03.695Z,87
2019-01-17T01:26:03.239Z,87
2019-01-17T01:27:02.815Z,87
2019-01-17T01:28:02.950Z,87
2019-01-17T01:29:02.889Z,87
2019-01-17T01:30:02.840Z,87
2019-01-17T01:31:03.211Z,87
2019-01-17T01:32:03.414Z,87
2019-01-17T01:33:02.817Z,87
2019-01-17T01:34:02.987Z,87
2019-01-17T01:35:03.664Z,87
2019-01-17T01:36:03.208Z,86
2019-01-17T01:37:03.625Z,87
2019-01-17T01:38:03.438Z,87
2019-01-17T01:39:03.126Z,87
2019-01-17T01:40:02.980Z,86
2019-01-17T01:41:03.320Z,86
2019-01-17T01:42:03.521Z,86
2019-01-17T01:43:02.989Z,86
2019-01-17T01:44:02.992Z,87
2019-01-17T01:45:03.021Z,87
2019-01-17T01:46:03.370Z,87
2019-01-17T01:47:03.563Z,87
2019-01-17T01:48:02.784Z,87
2019-01-17T01:49:03.245Z,87
2019-01-17T01:50:03.525Z,87
2019-01-17T01:51:03.238Z,87
2019-01-17T01:52:03.663Z,87
2019-01-17T01:53:03.614Z,87
2019-01-17T01:54:03.687Z,87
2019-01-17T01:55:02.855Z,87
2019-01-17T01:56:03.462Z,87
2019-01-17T01:57:03.228Z,87
2019-01-17T01:58:03.281Z,87
2019-01-17T01:59:03.521Z,87
2019-01-17T02:00:03.659Z,87
2019-01-17T02:01:02.925Z,87
2019-01-17T02:02:03.065Z,87
2019-01-17T02:03:02.885Z,87
2019-01-17T02:04:03.652Z,87
2019-01-17T02:05:03.346Z,87
2019-01-17T02:06:03.352Z,87
2019-01-17T02:07:03.040Z,87
2019-01-17T02:08:03.643Z,87
2019-01-17T02:09:03.714Z,87
2019-01-17T02:10:02.913Z,87
2019-01-17T02:11:03.097Z,87
2019-01-17T02:12:02.654Z,88
2019-01-17T02:13:03.112Z,88
2019-01-17T02:14:03.552Z,88
2019-01-17T02:15:03.150Z,88
2019-01-17T02:16:03.244Z,88
2019-01-17T02:17:03.151Z,88
2019-01-17T02:18:03.339Z,87
2019-01-17T02:19:03.607Z,87
2019-01-17T02:20:03.645Z,87
2019-01-17T02:21:03.364Z,87
2019-01-17T02:22:03.554Z,87
2019-01-17T02:23:02.827Z,87
2019-01-17T02:24:02.982Z,87
2019-01-17T02:25:03.678Z,87
2019-01-17T02:26:03.417Z,87
2019-01-17T02:27:03.721Z,86
2019-01-17T02:28:02.747Z,86
2019-01-17T02:29:03.427Z,86
2019-01-17T02:30:02.994Z,86
2019-01-17T02:31:03.249Z,86
2019-01-17T02:32:03.240Z,86
2019-01-17T02:33:03.087Z,86
2019-01-17T02:34:03.025Z,86
2019-01-17T02:35:03.120Z,86
2019-01-17T02:36:03.773Z,86
2019-01-17T02:37:02.840Z,86
2019-01-17T02:38:03.035Z,86
2019-01-17T02:39:03.263Z,85
2019-01-17T02:40:03.015Z,85
2019-01-17T02:41:03.342Z,85
2019-01-17T02:42:03.379Z,85
2019-01-17T02:43:03.492Z,85
2019-01-17T02:44:03.760Z,85
2019-01-17T02:45:03.261Z,85
2019-01-17T02:46:03.626Z,85
2019-01-17T02:47:02.907Z,85
2019-01-17T02:48:03.345Z,85
2019-01-17T02:49:03.670Z,85
2019-01-17T02:50:03.158Z,85
2019-01-17T02:51:03.717Z,85
2019-01-17T02:52:02.752Z,85
2019-01-17T02:53:03.556Z,85
2019-01-17T02:54:03.464Z,85
2019-01-17T02:55:03.740Z,85
2019-01-17T02:56:03.295Z,85
2019-01-17T02:57:03.464Z,85
2019-01-17T02:58:03.256Z,85
2019-01-17T02:59:03.317Z,85
2019-01-17T03:00:03.005Z,85
2019-01-17T03:01:03.201Z,85
2019-01-17T03:02:03.510Z,85
2019-01-17T03:03:03.197Z,85
2019-01-17T03:04:03.102Z,85
2019-01-17T03:05:03.396Z,85
2019-01-17T03:06:02.786Z,85
2019-01-17T03:07:03.664Z,85
2019-01-17T03:08:03.664Z,85
2019-01-17T03:09:03.750Z,85
2019-01-17T03:10:03.312Z,85
2019-01-17T03:11:02.806Z,85
2019-01-17T03:12:03.245Z,84
2019-01-17T03:13:03.672Z,84
2019-01-17T03:14:03.042Z,84
2019-01-17T03:15:03.386Z,84
2019-01-17T03:16:03.433Z,84
2019-01-17T03:17:03.173Z,84
2019-01-17T03:18:03.564Z,84
2019-01-17T03:19:03.425Z,84
2019-01-17T03:20:03.688Z,84
2019-01-17T03:21:03.152Z,84
2019-01-17T03:22:03.731Z,84
2019-01-17T03:23:03.595Z,84
2019-01-17T03:24:03.559Z,84
2019-01-17T03:25:03.454Z,84
2019-01-17T03:26:03.187Z,84
2019-01-17T03:27:02.866Z,84
2019-01-17T03:28:03.249Z,84
2019-01-17T03:29:03.008Z,84
2019-01-17T03:30:03.467Z,84
2019-01-17T03:31:03.641Z,84
2019-01-17T03:32:03.294Z,84
2019-01-17T03:33:02.847Z,84
2019-01-17T03:34:03.856Z,84
2019-01-17T03:35:03.826Z,83
2019-01-17T03:36:03.760Z,83
2019-01-17T03:37:03.262Z,83
2019-01-17T03:38:03.443Z,83
2019-01-17T03:39:03.619Z,83
2019-01-17T03:40:03.301Z,83
2019-01-17T03:41:03.270Z,83
2019-01-17T03:42:03.654Z,83
2019-01-17T03:43:03.432Z,83
2019-01-17T03:44:03.624Z,83
2019-01-17T03:45:03.630Z,83
2019-01-17T03:46:02.872Z,83
2019-01-17T03:47:03.591Z,83
2019-01-17T03:48:03.444Z,83
2019-01-17T03:49:03.403Z,83
2019-01-17T03:50:03.697Z,83
2019-01-17T03:51:03.771Z,83
2019-01-17T03:52:03.215Z,83
2019-01-17T03:53:03.614Z,83
2019-01-17T03:54:03.690Z,83
2019-01-17T03:55:03.402Z,83
2019-01-17T03:56:03.141Z,83
2019-01-17T03:57:02.955Z,83
2019-01-17T03:58:03.843Z,83
2019-01-17T03:59:03.391Z,83
2019-01-17T04:00:03.598Z,83
2019-01-17T04:01:02.938Z,83
2019-01-17T04:02:03.528Z,83
2019-01-17T04:03:02.871Z,83
2019-01-17T04:04:03.519Z,83
2019-01-17T04:05:02.927Z,83
2019-01-17T04:06:03.350Z,83
2019-01-17T04:07:03.204Z,83
2019-01-17T04:08:03.546Z,83
2019-01-17T04:09:03.019Z,83
2019-01-17T04:10:03.443Z,83
2019-01-17T04:11:03.463Z,83
2019-01-17T04:12:03.713Z,83
2019-01-17T04:13:03.520Z,83
2019-01-17T04:14:02.828Z,83
2019-01-17T04:15:03.575Z,83
2019-01-17T04:16:02.971Z,83
2019-01-17T04:17:03.359Z,83
2019-01-17T04:18:03.045Z,83
2019-01-17T04:19:03.590Z,83
2019-01-17T04:20:03.688Z,83
2019-01-17T04:21:03.210Z,83
2019-01-17T04:22:03.655Z,83
2019-01-17T04:23:03.188Z,83
2019-01-17T04:24:03.246Z,83
2019-01-17T04:25:02.974Z,83
2019-01-17T04:26:03.632Z,83
2019-01-17T04:27:02.782Z,83
2019-01-17T04:28:03.520Z,83
2019-01-17T04:29:02.937Z,83
2019-01-17T04:30:03.427Z,83
2019-01-17T04:31:02.873Z,83
2019-01-17T04:32:02.988Z,83
2019-01-17T04:33:03.016Z,83
2019-01-17T04:34:03.755Z,83
2019-01-17T04:35:02.926Z,83
2019-01-17T04:36:02.842Z,83
2019-01-17T04:37:02.750Z,83
2019-01-17T04:38:03.696Z,83
2019-01-17T04:39:02.823Z,83
2019-01-17T04:40:03.477Z,83
2019-01-17T04:41:03.508Z,83
2019-01-17T04:42:03.294Z,83
2019-01-17T04:43:02.788Z,83
2019-01-17T04:44:03.403Z,83
2019-01-17T04:45:03.424Z,83
2019-01-17T04:46:03.721Z,83
2019-01-17T04:47:02.777Z,83
2019-01-17T04:48:02.843Z,83
2019-01-17T04:49:03.620Z,83
2019-01-17T04:50:02.972Z,83
2019-01-17T04:51:02.807Z,83
2019-01-17T04:52:03.346Z,83
2019-01-17T04:53:03.310Z,83
2019-01-17T04:54:03.288Z,83
2019-01-17T04:55:05.850Z,83
2019-01-17T04:56:02.696Z,83
2019-01-17T04:57:03.671Z,83
2019-01-17T04:58:03.404Z,83
2019-01-17T04:59:03.022Z,83
2019-01-17T05:00:03.493Z,83
2019-01-17T05:01:03.266Z,83
2019-01-17T05:02:03.672Z,83
2019-01-17T05:03:03.496Z,83
2019-01-17T05:04:03.276Z,83
2019-01-17T05:05:03.239Z,83
2019-01-17T05:06:03.753Z,83
2019-01-17T05:07:02.715Z,83
2019-01-17T05:08:03.253Z,83
2019-01-17T05:09:03.814Z,83
2019-01-17T05:10:03.709Z,83
2019-01-17T05:11:03.324Z,83
2019-01-17T05:12:03.270Z,83
2019-01-17T05:13:02.731Z,83
2019-01-17T05:14:03.555Z,83
2019-01-17T05:15:03.549Z,83
2019-01-17T05:16:03.265Z,83
2019-01-17T05:17:03.427Z,83
2019-01-17T05:18:02.964Z,83
2019-01-17T05:19:03.558Z,83
2019-01-17T05:20:03.690Z,83
2019-01-17T05:21:03.040Z,83
2019-01-17T05:22:02.951Z,83
2019-01-17T05:23:02.985Z,83
2019-01-17T05:24:03.690Z,83
2019-01-17T05:25:03.092Z,83
2019-01-17T05:26:03.602Z,83
2019-01-17T05:27:03.728Z,83
2019-01-17T05:28:02.959Z,83
2019-01-17T05:29:02.978Z,83
2019-01-17T05:30:03.435Z,83
2019-01-17T05:31:03.096Z,83
2019-01-17T05:32:03.250Z,83
2019-01-17T05:33:03.361Z,83
2019-01-17T05:34:03.465Z,83
2019-01-17T05:35:03.621Z,83
2019-01-17T05:36:02.907Z,83
2019-01-17T05:37:03.262Z,83
2019-01-17T05:38:03.064Z,83
2019-01-17T05:39:03.051Z,83
2019-01-17T05:40:03.524Z,83
2019-01-17T05:41:03.236Z,83
2019-01-17T05:42:02.964Z,83
2019-01-17T05:43:03.257Z,83
2019-01-17T05:44:03.595Z,83
2019-01-17T05:45:03.274Z,83
2019-01-17T05:46:03.188Z,83
2019-01-17T05:47:03.106Z,83
2019-01-17T05:48:03.547Z,83
2019-01-17T05:49:03.180Z,83
2019-01-17T05:50:03.495Z,83
2019-01-17T05:51:03.041Z,83
2019-01-17T05:52:03.380Z,83
2019-01-17T05:53:03.643Z,83
2019-01-17T05:54:03.086Z,83
2019-01-17T05:55:02.899Z,83
2019-01-17T05:56:02.957Z,83
2019-01-17T05:57:03.758Z,83
2019-01-17T05:58:03.320Z,83
2019-01-17T05:59:02.908Z,83
2019-01-17T06:00:03.543Z,83
2019-01-17T06:01:03.181Z,84
2019-01-17T06:02:03.315Z,84
2019-01-17T06:03:02.901Z,84
2019-01-17T06:04:03.097Z,84
2019-01-17T06:05:03.359Z,84
2019-01-17T06:06:03.273Z,84
2019-01-17T06:07:03.152Z,84
2019-01-17T06:08:03.066Z,84
2019-01-17T06:09:02.974Z,84
2019-01-17T06:10:02.994Z,84
2019-01-17T06:11:02.860Z,84
2019-01-17T06:12:03.691Z,84
2019-01-17T06:13:03.576Z,84
2019-01-17T06:14:03.564Z,84
2019-01-17T06:15:03.129Z,84
2019-01-17T06:16:03.529Z,84
2019-01-17T06:17:02.954Z,84
2019-01-17T06:18:02.926Z,84
2019-01-17T06:19:02.855Z,84
2019-01-17T06:20:03.324Z,84
2019-01-17T06:21:03.440Z,84
2019-01-17T06:22:02.755Z,84
2019-01-17T06:23:03.159Z,84
2019-01-17T06:24:03.136Z,84
2019-01-17T06:25:03.032Z,84
2019-01-17T06:26:02.945Z,84
2019-01-17T06:27:02.741Z,84
2019-01-17T06:28:03.007Z,84
2019-01-17T06:29:02.753Z,84
2019-01-17T06:30:03.665Z,84
2019-01-17T06:31:03.098Z,84
2019-01-17T06:32:03.660Z,84
2019-01-17T06:33:03.246Z,84
2019-01-17T06:34:02.895Z,84
2019-01-17T06:35:02.998Z,84
2019-01-17T06:36:03.233Z,84
2019-01-17T06:37:03.771Z,84
2019-01-17T06:38:03.278Z,84
2019-01-17T06:39:03.022Z,84
2019-01-17T06:40:03.700Z,84
2019-01-17T06:41:02.629Z,84
2019-01-17T06:42:02.726Z,84
2019-01-17T06:43:02.955Z,85
2019-01-17T06:44:02.704Z,85
2019-01-17T06:45:03.226Z,85
2019-01-17T06:46:02.994Z,85
2019-01-17T06:47:03.507Z,85
2019-01-17T06:48:02.813Z,85
2019-01-17T06:49:03.492Z,85
2019-01-17T06:50:03.621Z,85
2019-01-17T06:51:03.130Z,85
2019-01-17T06:52:03.781Z,85
2019-01-17T06:53:03.286Z,85
2019-01-17T06:54:03.146Z,85
2019-01-17T06:55:03.247Z,85
2019-01-17T06:56:03.427Z,85
2019-01-17T06:57:02.787Z,85
2019-01-17T06:58:03.421Z,85
2019-01-17T06:59:03.152Z,85
2019-01-17T07:00:03.627Z,85
2019-01-17T07:01:03.124Z,85
2019-01-17T07:02:03.627Z,85
2019-01-17T07:03:03.567Z,85
2019-01-17T07:04:03.230Z,85
2019-01-17T07:05:03.307Z,85
2019-01-17T07:06:03.522Z,85
2019-01-17T07:07:03.533Z,85
2019-01-17T07:08:02.710Z,85
2019-01-17T07:09:03.233Z,85
2019-01-17T07:10:02.921Z,85
2019-01-17T07:11:03.548Z,85
2019-01-17T07:12:02.608Z,85
2019-01-17T07:13:02.652Z,85
2019-01-17T07:14:02.740Z,85
2019-01-17T07:15:03.401Z,85
2019-01-17T07:16:03.516Z,85
2019-01-17T07:17:03.005Z,85
2019-01-17T07:18:02.854Z,85
2019-01-17T07:19:03.213Z,85
2019-01-17T07:20:03.623Z,85
2019-01-17T07:21:03.618Z,85
2019-01-17T07:22:03.429Z,85
2019-01-17T07:23:02.882Z,85
2019-01-17T07:24:02.935Z,85
2019-01-17T07:25:03.348Z,85
2019-01-17T07:26:02.893Z,85
2019-01-17T07:27:03.723Z,85
2019-01-17T07:28:03.146Z,85
2019-01-17T07:29:03.842Z,85
2019-01-17T07:30:03.657Z,85
2019-01-17T07:31:03.662Z,85
2019-01-17T07:32:03.693Z,85
2019-01-17T07:33:02.877Z,85
2019-01-17T07:34:03.512Z,85
2019-01-17T07:35:03.314Z,85
2019-01-17T07:36:03.575Z,85
2019-01-17T07:37:03.236Z,85
2019-01-17T07:38:02.871Z,85
2019-01-17T07:39:03.527Z,85
2019-01-17T07:40:03.414Z,85
2019-01-17T07:41:03.949Z,85
2019-01-17T07:42:03.323Z,85
2019-01-17T07:43:03.378Z,85
2019-01-17T07:44:03.355Z,85
2019-01-17T07:45:03.164Z,85
2019-01-17T07:46:03.800Z,85
2019-01-17T07:47:03.353Z,85
2019-01-17T07:48:03.687Z,85
2019-01-17T07:49:02.763Z,85
2019-01-17T07:50:03.383Z,85
2019-01-17T07:51:03.267Z,85
2019-01-17T07:52:03.760Z,85
2019-01-17T07:53:03.207Z,85
2019-01-17T07:54:02.842Z,84
2019-01-17T07:55:02.843Z,84
2019-01-17T07:56:02.893Z,84
2019-01-17T07:57:03.065Z,84
2019-01-17T07:58:02.898Z,84
2019-01-17T07:59:03.503Z,84
2019-01-17T08:00:03.512Z,84
2019-01-17T08:01:03.506Z,84
2019-01-17T08:02:03.562Z,84
2019-01-17T08:03:03.841Z,84
2019-01-17T08:04:02.946Z,84
2019-01-17T08:05:02.908Z,84
2019-01-17T08:06:03.068Z,84
2019-01-17T08:07:03.406Z,84
2019-01-17T08:08:03.320Z,84
2019-01-17T08:09:03.666Z,84
2019-01-17T08:10:03.389Z,84
2019-01-17T08:11:03.188Z,84
2019-01-17T08:12:05.352Z,84
2019-01-17T08:13:03.518Z,84
2019-01-17T08:14:03.074Z,84
2019-01-17T08:15:03.350Z,84
2019-01-17T08:16:03.057Z,84
2019-01-17T08:17:03.318Z,84
2019-01-17T08:18:02.787Z,84
2019-01-17T08:19:03.827Z,84
2019-01-17T08:20:03.088Z,84
2019-01-17T08:21:02.875Z,84
2019-01-17T08:22:03.230Z,84
2019-01-17T08:23:02.689Z,84
2019-01-17T08:24:03.059Z,84
2019-01-17T08:25:03.282Z,84
2019-01-17T08:26:03.119Z,84
2019-01-17T08:27:03.630Z,84
2019-01-17T08:28:02.727Z,84
2019-01-17T08:29:02.957Z,84
2019-01-17T08:30:03.038Z,84
2019-01-17T08:31:03.676Z,84
2019-01-17T08:32:03.213Z,84
2019-01-17T08:33:03.518Z,84
2019-01-17T08:34:02.985Z,84
2019-01-17T08:35:03.530Z,84
2019-01-17T08:36:03.544Z,84
2019-01-17T08:37:03.455Z,84
2019-01-17T08:38:03.542Z,84
2019-01-17T08:39:03.060Z,84
2019-01-17T08:40:03.773Z,84
2019-01-17T08:41:03.317Z,84
2019-01-17T08:42:03.654Z,83
2019-01-17T08:43:02.841Z,83
2019-01-17T08:44:03.186Z,83
2019-01-17T08:45:03.124Z,83
2019-01-17T08:46:03.467Z,83
2019-01-17T08:47:03.080Z,83
2019-01-17T08:48:03.044Z,83
2019-01-17T08:49:03.629Z,83
2019-01-17T08:50:02.959Z,83
2019-01-17T08:51:03.550Z,83
2019-01-17T08:52:03.095Z,83
2019-01-17T08:53:03.719Z,83
2019-01-17T08:54:03.713Z,83
2019-01-17T08:55:02.905Z,83
2019-01-17T08:56:02.876Z,83
2019-01-17T08:57:03.277Z,83
2019-01-17T08:58:02.823Z,83
2019-01-17T08:59:03.172Z,83
2019-01-17T09:00:03.591Z,83
2019-01-17T09:01:02.925Z,83
2019-01-17T09:02:02.963Z,83
2019-01-17T09:03:03.358Z,82
2019-01-17T09:04:03.524Z,82
2019-01-17T09:05:03.272Z,82
2019-01-17T09:06:02.953Z,82
2019-01-17T09:07:02.985Z,82
2019-01-17T09:08:02.947Z,82
2019-01-17T09:09:03.729Z,82
2019-01-17T09:10:02.876Z,82
2019-01-17T09:11:03.435Z,82
2019-01-17T09:12:03.607Z,82
2019-01-17T09:13:02.914Z,82
2019-01-17T09:14:03.708Z,82
2019-01-17T09:15:03.469Z,82
2019-01-17T09:16:03.416Z,82
2019-01-17T09:17:03.697Z,82
2019-01-17T09:18:03.388Z,82
2019-01-17T09:19:02.960Z,82
2019-01-17T09:20:03.251Z,82
2019-01-17T09:21:03.823Z,82
2019-01-17T09:22:03.196Z,82
2019-01-17T09:23:03.562Z,82
2019-01-17T09:24:03.673Z,82
2019-01-17T09:25:03.074Z,82
2019-01-17T09:26:07.972Z,82
2019-01-17T09:27:02.769Z,82
2019-01-17T09:28:03.165Z,82
2019-01-17T09:29:02.911Z,82
2019-01-17T09:30:03.652Z,82
2019-01-17T09:31:03.138Z,82
2019-01-17T09:32:03.314Z,82
2019-01-17T09:33:02.991Z,82
2019-01-17T09:34:03.165Z,82
2019-01-17T09:35:03.000Z,82
2019-01-17T09:36:03.500Z,82
2019-01-17T09:37:02.775Z,82
2019-01-17T09:38:03.127Z,82
2019-01-17T09:39:02.887Z,82
2019-01-17T09:40:03.068Z,82
2019-01-17T09:41:03.574Z,82
2019-01-17T09:42:03.488Z,82
2019-01-17T09:43:02.971Z,82
2019-01-17T09:44:03.170Z,82
2019-01-17T09:45:03.025Z,82
2019-01-17T09:46:02.830Z,82
2019-01-17T09:47:03.069Z,82
2019-01-17T09:48:02.879Z,82
2019-01-17T09:49:03.677Z,82
2019-01-17T09:50:03.563Z,82
2019-01-17T09:51:03.407Z,82
2019-01-17T09:52:03.285Z,82
2019-01-17T09:53:03.491Z,82
2019-01-17T09:54:02.873Z,82
2019-01-17T09:55:03.396Z,82
2019-01-17T09:56:02.971Z,82
2019-01-17T09:57:03.128Z,82
2019-01-17T09:58:03.630Z,82
2019-01-17T09:59:03.235Z,82
2019-01-17T10:00:03.687Z,82
2019-01-17T10:01:02.793Z,82
2019-01-17T10:02:02.768Z,82
2019-01-17T10:03:03.537Z,82
2019-01-17T10:04:03.048Z,82
2019-01-17T10:05:03.098Z,82
2019-01-17T10:06:02.916Z,82
2019-01-17T10:07:03.518Z,82
2019-01-17T10:08:02.822Z,81
2019-01-17T10:09:03.522Z,81
2019-01-17T10:10:03.818Z,81
2019-01-17T10:11:03.703Z,81
2019-01-17T10:12:02.830Z,81
2019-01-17T10:13:03.631Z,81
2019-01-17T10:14:02.947Z,81
2019-01-17T10:15:03.319Z,81
2019-01-17T10:16:03.704Z,81
2019-01-17T10:17:02.793Z,80
2019-01-17T10:18:03.151Z,80
2019-01-17T10:19:03.146Z,80
2019-01-17T10:20:03.585Z,80
2019-01-17T10:21:03.049Z,80
2019-01-17T10:22:02.945Z,80
2019-01-17T10:23:03.462Z,80
2019-01-17T10:24:02.912Z,80
2019-01-17T10:25:03.442Z,80
2019-01-17T10:26:03.711Z,80
2019-01-17T10:27:03.742Z,80
2019-01-17T10:28:03.031Z,80
2019-01-17T10:29:03.342Z,80
2019-01-17T10:30:03.049Z,80
2019-01-17T10:31:03.264Z,80
2019-01-17T10:32:03.365Z,80
2019-01-17T10:33:03.647Z,80
2019-01-17T10:34:02.752Z,80
2019-01-17T10:35:03.680Z,80
2019-01-17T10:36:02.773Z,80
2019-01-17T10:37:02.963Z,80
2019-01-17T10:38:03.458Z,80
2019-01-17T10:39:02.812Z,80
2019-01-17T10:40:03.772Z,80
2019-01-17T10:41:03.476Z,80
2019-01-17T10:42:03.593Z,80
2019-01-17T10:43:03.329Z,80
2019-01-17T10:44:03.300Z,80
2019-01-17T10:45:02.802Z,80
2019-01-17T10:46:03.694Z,80
2019-01-17T10:47:03.005Z,80
2019-01-17T10:48:02.859Z,80
2019-01-17T10:49:03.720Z,80
2019-01-17T10:50:03.064Z,80
2019-01-17T10:51:03.558Z,79
2019-01-17T10:52:03.466Z,79
2019-01-17T10:53:02.881Z,79
2019-01-17T10:54:03.231Z,79
2019-01-17T10:55:03.693Z,79
2019-01-17T10:56:03.349Z,79
2019-01-17T10:57:03.205Z,79
2019-01-17T10:58:03.098Z,79
2019-01-17T10:59:03.159Z,79
2019-01-17T11:00:03.278Z,79
2019-01-17T11:01:03.255Z,79
2019-01-17T11:02:02.854Z,79
2019-01-17T11:03:03.768Z,79
2019-01-17T11:04:03.747Z,79
2019-01-17T11:05:03.751Z,79
2019-01-17T11:06:03.685Z,79
2019-01-17T11:07:03.536Z,79
2019-01-17T11:08:03.659Z,79
2019-01-17T11:09:03.089Z,79
2019-01-17T11:10:03.362Z,79
2019-01-17T11:11:03.155Z,79
2019-01-17T11:12:02.844Z,79
2019-01-17T11:13:03.071Z,79
2019-01-17T11:14:02.888Z,79
2019-01-17T11:15:03.171Z,79
2019-01-17T11:16:03.618Z,79
2019-01-17T11:17:03.487Z,79
2019-01-17T11:18:03.537Z,79
2019-01-17T11:19:02.518Z,79
2019-01-17T11:20:02.909Z,79
2019-01-17T11:21:03.194Z,79
2019-01-17T11:22:02.985Z,79
2019-01-17T11:23:03.446Z,79
2019-01-17T11:24:03.581Z,79
2019-01-17T11:25:03.026Z,79
2019-01-17T11:26:03.101Z,79
2019-01-17T11:27:03.634Z,79
2019-01-17T11:28:03.048Z,78
2019-01-17T11:29:02.781Z,78
2019-01-17T11:30:03.289Z,78
2019-01-17T11:31:02.649Z,78
2019-01-17T11:32:03.345Z,78
2019-01-17T11:33:03.404Z,78
2019-01-17T11:34:03.001Z,78
2019-01-17T11:35:02.968Z,78
2019-01-17T11:36:02.943Z,78
2019-01-17T11:37:02.663Z,78
2019-01-17T11:38:03.275Z,78
2019-01-17T11:39:02.939Z,78
2019-01-17T11:40:03.261Z,78
2019-01-17T11:41:03.041Z,78
2019-01-17T11:42:02.859Z,78
2019-01-17T11:43:02.976Z,78
2019-01-17T11:44:03.267Z,78
2019-01-17T11:45:03.207Z,78
2019-01-17T11:46:03.539Z,78
2019-01-17T11:47:03.601Z,78
2019-01-17T11:48:03.621Z,78
2019-01-17T11:49:02.948Z,78
2019-01-17T11:50:03.264Z,78
2019-01-17T11:51:03.011Z,78
2019-01-17T11:52:03.087Z,78
2019-01-17T11:53:03.404Z,78
2019-01-17T11:54:03.608Z,78
2019-01-17T11:55:02.917Z,77
2019-01-17T11:56:03.290Z,77
2019-01-17T11:57:03.692Z,77
2019-01-17T11:58:03.019Z,77
2019-01-17T11:59:02.877Z,77
2019-01-17T12:00:02.787Z,77
2019-01-17T12:01:03.023Z,77
2019-01-17T12:02:03.437Z,77
2019-01-17T12:03:03.246Z,77
2019-01-17T12:04:03.341Z,77
2019-01-17T12:05:03.131Z,77
2019-01-17T12:06:03.409Z,77
2019-01-17T12:07:02.961Z,77
2019-01-17T12:08:03.525Z,77
2019-01-17T12:09:03.073Z,77
2019-01-17T12:10:03.665Z,77
2019-01-17T12:11:03.251Z,77
2019-01-17T12:12:03.350Z,77
2019-01-17T12:13:02.761Z,77
2019-01-17T12:14:02.819Z,77
2019-01-17T12:15:03.726Z,77
2019-01-17T12:16:02.815Z,77
2019-01-17T12:17:03.384Z,77
2019-01-17T12:18:02.881Z,77
2019-01-17T12:19:03.197Z,77
2019-01-17T12:20:03.526Z,76
2019-01-17T12:21:03.582Z,76
2019-01-17T12:22:02.740Z,76
2019-01-17T12:23:02.978Z,76
2019-01-17T12:24:03.007Z,76
2019-01-17T12:25:03.281Z,76
2019-01-17T12:26:03.789Z,76
2019-01-17T12:27:02.839Z,76
2019-01-17T12:28:02.829Z,76
2019-01-17T12:29:03.454Z,76
2019-01-17T12:30:02.924Z,76
2019-01-17T12:31:03.608Z,76
2019-01-17T12:32:03.524Z,76
2019-01-17T12:33:03.690Z,76
2019-01-17T12:34:03.213Z,76
2019-01-17T12:35:03.030Z,76
2019-01-17T12:36:03.578Z,76
2019-01-17T12:37:03.547Z,76
2019-01-17T12:38:03.668Z,76
2019-01-17T12:39:02.790Z,76
2019-01-17T12:40:02.861Z,76
2019-01-17T12:41:02.892Z,76
2019-01-17T12:42:02.981Z,76
2019-01-17T12:43:03.523Z,76
2019-01-17T12:44:03.449Z,76
2019-01-17T12:45:03.614Z,76
2019-01-17T12:46:03.212Z,76
2019-01-17T12:47:03.513Z,76
2019-01-17T12:48:03.280Z,76
2019-01-17T12:49:02.722Z,76
2019-01-17T12:50:03.022Z,76
2019-01-17T12:51:02.851Z,76
2019-01-17T12:52:03.065Z,76
2019-01-17T12:53:02.980Z,76
2019-01-17T12:54:03.161Z,76
2019-01-17T12:55:03.776Z,76
2019-01-17T12:56:03.362Z,76
2019-01-17T12:57:02.955Z,76
2019-01-17T12:58:03.121Z,76
2019-01-17T12:59:03.086Z,76
2019-01-17T13:00:08.102Z,76
2019-01-17T13:01:02.751Z,76
2019-01-17T13:02:03.089Z,76
2019-01-17T13:03:02.764Z,76
2019-01-17T13:04:03.534Z,76
2019-01-17T13:05:02.730Z,76
2019-01-17T13:06:02.949Z,76
2019-01-17T13:07:02.980Z,76
2019-01-17T13:08:03.132Z,77
2019-01-17T13:09:02.934Z,77
2019-01-17T13:10:03.242Z,77
2019-01-17T13:11:03.630Z,77
2019-01-17T13:12:02.918Z,77
2019-01-17T13:13:03.480Z,77
2019-01-17T13:14:03.631Z,77
2019-01-17T13:15:03.254Z,77
2019-01-17T13:16:03.347Z,77
2019-01-17T13:17:03.359Z,77
2019-01-17T13:18:03.405Z,77
2019-01-17T13:19:03.307Z,77
2019-01-17T13:20:03.592Z,77
2019-01-17T13:21:03.549Z,77
2019-01-17T13:22:03.327Z,77
2019-01-17T13:23:03.014Z,77
2019-01-17T13:24:03.397Z,77
2019-01-17T13:25:04.322Z,77
2019-01-17T13:26:03.132Z,77
2019-01-17T13:27:02.918Z,77
2019-01-17T13:28:02.827Z,77
2019-01-17T13:29:03.376Z,77
2019-01-17T13:30:03.675Z,77
2019-01-17T13:31:02.881Z,77
2019-01-17T13:32:02.816Z,77
2019-01-17T13:33:03.177Z,77
2019-01-17T13:34:02.860Z,77
2019-01-17T13:35:02.975Z,77
2019-01-17T13:36:03.481Z,77
2019-01-17T13:37:03.349Z,77
2019-01-17T13:38:03.058Z,77
2019-01-17T13:39:03.366Z,77
2019-01-17T13:40:03.048Z,77
2019-01-17T13:41:03.109Z,77
2019-01-17T13:42:03.727Z,78
2019-01-17T13:43:02.897Z,78
2019-01-17T13:44:03.642Z,78
2019-01-17T13:45:03.099Z,78
2019-01-17T13:46:02.970Z,78
2019-01-17T13:47:03.039Z,78
2019-01-17T13:48:03.084Z,78
2019-01-17T13:49:02.914Z,78
2019-01-17T13:50:01.965Z,79
2019-01-17T13:51:03.381Z,79
2019-01-17T13:52:03.325Z,79
2019-01-17T13:53:02.827Z,79
2019-01-17T13:54:03.202Z,79
2019-01-17T13:55:03.605Z,79
2019-01-17T13:56:03.001Z,79
2019-01-17T13:57:07.992Z,79
2019-01-17T13:58:03.102Z,79
2019-01-17T13:59:03.554Z,79
2019-01-17T14:00:02.764Z,79
2019-01-17T14:01:03.264Z,79
2019-01-17T14:02:03.522Z,79
2019-01-17T14:03:02.951Z,79
2019-01-17T14:04:03.536Z,79
2019-01-17T14:05:03.169Z,79
2019-01-17T14:06:03.158Z,79
2019-01-17T14:07:02.983Z,79
2019-01-17T14:08:03.274Z,79
2019-01-17T14:09:02.930Z,79
2019-01-17T14:10:02.166Z,79
2019-01-17T14:11:02.943Z,79
2019-01-17T14:12:03.757Z,79
2019-01-17T14:13:03.447Z,79
2019-01-17T14:14:02.827Z,79
2019-01-17T14:15:03.056Z,79